Appleby, United Kingdom
Current Conditions -  °F | °C
As of 9:50 PM on Tuesday 25 Nov 2014 (Local Time) from EGNJ Reporting Station
Haze Haze  
Wind Chill: 45°   Ceiling: 3000
Heat Index: 45°   Visibility: 2.8mi
Dew Point: 43°   Wind: 2mph
Humidity: 93%   Direction: NA
Pressure: 30.12"   Gusts: NA
Location:  53.62°N, 0.57°W
Report Text: EGNJ 252150Z AUTO VRB02KT 4500 HZ SCT025/// BKN030/// 07/06 Q1020
Loading
Personal Weather Stations






























Interactive Weather Map New forecast layout! Learn more

10-Day Weather Forecast

Advertisements
Track Severe Weather on mobile